sensor_id;sensor_type;location;lat;lon;timestamp;temperature;humidity
28654;DHT22;24320;56.980;24.336;2023-03-01T00:02:15;1.30;99.90
28654;DHT22;24320;56.980;24.336;2023-03-01T00:04:41;1.40;99.90
28654;DHT22;24320;56.980;24.336;2023-03-01T00:07:08;1.40;99.90
28654;DHT22;24320;56.980;24.336;2023-03-01T00:09:36;1.30;99.90
28654;DHT22;24320;56.980;24.336;2023-03-01T00:12:04;1.30;99.90
28654;DHT22;24320;56.980;24.336;2023-03-01T00:14:31;1.20;99.90
28654;DHT22;24320;56.980;24.336;2023-03-01T00:16:58;1.20;99.90
28654;DHT22;24320;56.980;24.336;2023-03-01T00:19:26;1.20;99.90
28654;DHT22;24320;56.980;24.336;2023-03-01T00:21:53;1.20;99.90
28654;DHT22;24320;56.980;24.336;2023-03-01T00:24:19;1.20;99.90
28654;DHT22;24320;56.980;24.336;2023-03-01T00:26:46;1.20;99.90
28654;DHT22;24320;56.980;24.336;2023-03-01T00:29:14;1.20;99.90
28654;DHT22;24320;56.980;24.336;2023-03-01T00:31:41;1.30;99.90
28654;DHT22;24320;56.980;24.336;2023-03-01T00:34:09;1.30;99.90
28654;DHT22;24320;56.980;24.336;2023-03-01T00:36:37;1.30;99.90
28654;DHT22;24320;56.980;24.336;2023-03-01T00:39:07;1.30;99.90
28654;DHT22;24320;56.980;24.336;2023-03-01T00:41:34;1.20;99.90
28654;DHT22;24320;56.980;24.336;2023-03-01T00:44:02;1.20;99.90
28654;DHT22;24320;56.980;24.336;2023-03-01T00:46:29;1.20;99.90
28654;DHT22;24320;56.980;24.336;2023-03-01T00:48:57;1.20;99.90
28654;DHT22;24320;56.980;24.336;2023-03-01T00:51:26;1.30;99.90
28654;DHT22;24320;56.980;24.336;2023-03-01T00:53:56;1.30;99.90
28654;DHT22;24320;56.980;24.336;2023-03-01T00:56:24;1.40;99.90
28654;DHT22;24320;56.980;24.336;2023-03-01T00:58:51;1.30;99.90
28654;DHT22;24320;56.980;24.336;2023-03-01T01:01:21;1.40;99.90
28654;DHT22;24320;56.980;24.336;2023-03-01T01:03:49;1.40;99.90
28654;DHT22;24320;56.980;24.336;2023-03-01T01:06:20;1.40;99.90
28654;DHT22;24320;56.980;24.336;2023-03-01T01:08:48;1.40;99.90
28654;DHT22;24320;56.980;24.336;2023-03-01T01:11:16;1.30;99.90
28654;DHT22;24320;56.980;24.336;2023-03-01T01:13:45;1.40;99.90
28654;DHT22;24320;56.980;24.336;2023-03-01T01:16:13;1.40;99.90
28654;DHT22;24320;56.980;24.336;2023-03-01T01:18:41;1.40;99.90
28654;DHT22;24320;56.980;24.336;2023-03-01T01:21:10;1.40;99.90
28654;DHT22;24320;56.980;24.336;2023-03-01T01:23:39;1.40;99.90
28654;DHT22;24320;56.980;24.336;2023-03-01T01:26:15;1.40;99.90
28654;DHT22;24320;56.980;24.336;2023-03-01T01:28:42;1.40;99.90
28654;DHT22;24320;56.980;24.336;2023-03-01T01:31:09;1.40;99.90
28654;DHT22;24320;56.980;24.336;2023-03-01T01:33:36;1.40;99.90
28654;DHT22;24320;56.980;24.336;2023-03-01T01:36:07;1.30;99.90
28654;DHT22;24320;56.980;24.336;2023-03-01T01:38:36;1.30;99.90
28654;DHT22;24320;56.980;24.336;2023-03-01T01:41:03;1.30;99.90
28654;DHT22;24320;56.980;24.336;2023-03-01T01:43:40;1.30;99.90
28654;DHT22;24320;56.980;24.336;2023-03-01T01:49:14;1.30;99.90
28654;DHT22;24320;56.980;24.336;2023-03-01T01:51:38;1.30;99.90
28654;DHT22;24320;56.980;24.336;2023-03-01T01:54:12;1.30;99.90
28654;DHT22;24320;56.980;24.336;2023-03-01T01:56:44;1.30;99.90
28654;DHT22;24320;56.980;24.336;2023-03-01T01:59:28;1.30;99.90
28654;DHT22;24320;56.980;24.336;2023-03-01T02:01:59;1.40;99.90
28654;DHT22;24320;56.980;24.336;2023-03-01T02:04:28;1.30;99.90
28654;DHT22;24320;56.980;24.336;2023-03-01T02:07:07;1.40;99.90
28654;DHT22;24320;56.980;24.336;2023-03-01T02:09:38;1.40;99.90
28654;DHT22;24320;56.980;24.336;2023-03-01T02:12:05;1.40;99.90
28654;DHT22;24320;56.980;24.336;2023-03-01T02:14:33;1.40;99.90
28654;DHT22;24320;56.980;24.336;2023-03-01T02:17:00;1.40;99.90
28654;DHT22;24320;56.980;24.336;2023-03-01T02:19:42;1.40;99.90
28654;DHT22;24320;56.980;24.336;2023-03-01T02:22:22;1.40;99.90
28654;DHT22;24320;56.980;24.336;2023-03-01T02:28:00;1.40;99.90
28654;DHT22;24320;56.980;24.336;2023-03-01T02:30:29;1.30;99.90
28654;DHT22;24320;56.980;24.336;2023-03-01T02:32:59;1.30;99.90
28654;DHT22;24320;56.980;24.336;2023-03-01T02:35:35;1.30;99.90
28654;DHT22;24320;56.980;24.336;2023-03-01T02:38:06;1.40;99.90
28654;DHT22;24320;56.980;24.336;2023-03-01T02:40:36;1.40;99.90
28654;DHT22;24320;56.980;24.336;2023-03-01T02:43:07;1.40;99.90
28654;DHT22;24320;56.980;24.336;2023-03-01T02:45:35;1.50;99.90
28654;DHT22;24320;56.980;24.336;2023-03-01T02:48:02;1.50;99.90
28654;DHT22;24320;56.980;24.336;2023-03-01T02:52:57;1.40;99.90
28654;DHT22;24320;56.980;24.336;2023-03-01T02:55:27;1.40;99.90
28654;DHT22;24320;56.980;24.336;2023-03-01T02:57:56;1.40;99.90
28654;DHT22;24320;56.980;24.336;2023-03-01T03:00:31;1.40;99.90
28654;DHT22;24320;56.980;24.336;2023-03-01T03:05:32;1.50;99.90
28654;DHT22;24320;56.980;24.336;2023-03-01T03:08:02;1.40;99.90
28654;DHT22;24320;56.980;24.336;2023-03-01T03:10:36;1.50;99.90
28654;DHT22;24320;56.980;24.336;2023-03-01T03:13:12;1.50;99.90
28654;DHT22;24320;56.980;24.336;2023-03-01T03:15:40;1.50;99.90
28654;DHT22;24320;56.980;24.336;2023-03-01T03:18:11;1.50;99.90
28654;DHT22;24320;56.980;24.336;2023-03-01T03:20:41;1.40;99.90
28654;DHT22;24320;56.980;24.336;2023-03-01T03:23:08;1.40;99.90
28654;DHT22;24320;56.980;24.336;2023-03-01T03:25:35;1.40;99.90
28654;DHT22;24320;56.980;24.336;2023-03-01T03:28:06;1.40;99.90
28654;DHT22;24320;56.980;24.336;2023-03-01T03:30:38;1.40;99.90
28654;DHT22;24320;56.980;24.336;2023-03-01T03:33:07;1.50;99.90
28654;DHT22;24320;56.980;24.336;2023-03-01T03:35:41;1.50;99.90
28654;DHT22;24320;56.980;24.336;2023-03-01T03:38:10;1.50;99.90
28654;DHT22;24320;56.980;24.336;2023-03-01T03:40:47;1.50;99.90
28654;DHT22;24320;56.980;24.336;2023-03-01T03:43:20;1.50;99.90
28654;DHT22;24320;56.980;24.336;2023-03-01T03:45:49;1.60;99.90
28654;DHT22;24320;56.980;24.336;2023-03-01T03:48:17;1.50;99.90
28654;DHT22;24320;56.980;24.336;2023-03-01T03:50:55;1.60;99.90
28654;DHT22;24320;56.980;24.336;2023-03-01T03:53:24;1.60;99.90
28654;DHT22;24320;56.980;24.336;2023-03-01T03:55:51;1.60;99.90
28654;DHT22;24320;56.980;24.336;2023-03-01T03:58:20;1.60;99.90
28654;DHT22;24320;56.980;24.336;2023-03-01T04:00:49;1.60;99.90
28654;DHT22;24320;56.980;24.336;2023-03-01T04:03:18;1.60;99.90
28654;DHT22;24320;56.980;24.336;2023-03-01T04:05:46;1.70;99.90
28654;DHT22;24320;56.980;24.336;2023-03-01T04:08:14;1.60;99.90
28654;DHT22;24320;56.980;24.336;2023-03-01T04:10:43;1.70;99.90
28654;DHT22;24320;56.980;24.336;2023-03-01T04:13:12;1.60;99.90
28654;DHT22;24320;56.980;24.336;2023-03-01T04:15:41;1.70;99.90
28654;DHT22;24320;56.980;24.336;2023-03-01T04:18:12;1.60;99.90
28654;DHT22;24320;56.980;24.336;2023-03-01T04:20:39;1.60;99.90
28654;DHT22;24320;56.980;24.336;2023-03-01T04:23:15;1.70;99.90
28654;DHT22;24320;56.980;24.336;2023-03-01T04:25:53;1.60;99.90
28654;DHT22;24320;56.980;24.336;2023-03-01T04:30:48;1.70;99.90
28654;DHT22;24320;56.980;24.336;2023-03-01T04:33:15;1.70;99.90
28654;DHT22;24320;56.980;24.336;2023-03-01T04:35:42;1.70;99.90
28654;DHT22;24320;56.980;24.336;2023-03-01T04:38:09;1.70;99.90
28654;DHT22;24320;56.980;24.336;2023-03-01T04:40:37;1.80;99.90
28654;DHT22;24320;56.980;24.336;2023-03-01T04:43:04;1.80;99.90
28654;DHT22;24320;56.980;24.336;2023-03-01T04:45:32;1.80;99.90
28654;DHT22;24320;56.980;24.336;2023-03-01T04:48:01;1.80;99.90
28654;DHT22;24320;56.980;24.336;2023-03-01T04:50:29;1.80;99.90
28654;DHT22;24320;56.980;24.336;2023-03-01T04:52:56;1.80;99.90
28654;DHT22;24320;56.980;24.336;2023-03-01T04:55:26;1.80;99.90
28654;DHT22;24320;56.980;24.336;2023-03-01T04:57:54;1.80;99.90
28654;DHT22;24320;56.980;24.336;2023-03-01T05:00:22;1.80;99.90
28654;DHT22;24320;56.980;24.336;2023-03-01T05:02:57;1.80;99.90
28654;DHT22;24320;56.980;24.336;2023-03-01T05:05:34;1.80;99.90
28654;DHT22;24320;56.980;24.336;2023-03-01T05:08:07;1.80;99.90
28654;DHT22;24320;56.980;24.336;2023-03-01T05:10:35;1.80;99.90
28654;DHT22;24320;56.980;24.336;2023-03-01T05:13:03;1.80;99.90
28654;DHT22;24320;56.980;24.336;2023-03-01T05:15:31;1.80;99.90
28654;DHT22;24320;56.980;24.336;2023-03-01T05:17:59;1.80;99.90
28654;DHT22;24320;56.980;24.336;2023-03-01T05:20:30;1.80;99.90
28654;DHT22;24320;56.980;24.336;2023-03-01T05:22:59;1.80;99.90
28654;DHT22;24320;56.980;24.336;2023-03-01T05:25:26;1.80;99.90
28654;DHT22;24320;56.980;24.336;2023-03-01T05:27:54;1.80;99.90
28654;DHT22;24320;56.980;24.336;2023-03-01T05:30:21;1.80;99.90
28654;DHT22;24320;56.980;24.336;2023-03-01T05:32:50;1.80;99.90
28654;DHT22;24320;56.980;24.336;2023-03-01T05:35:23;1.80;99.90
28654;DHT22;24320;56.980;24.336;2023-03-01T05:37:50;1.80;99.90
28654;DHT22;24320;56.980;24.336;2023-03-01T05:40:20;1.80;99.90
28654;DHT22;24320;56.980;24.336;2023-03-01T05:42:50;1.90;99.90
28654;DHT22;24320;56.980;24.336;2023-03-01T05:45:17;1.90;99.90
28654;DHT22;24320;56.980;24.336;2023-03-01T05:47:46;1.90;99.90
28654;DHT22;24320;56.980;24.336;2023-03-01T05:50:14;1.90;99.90
28654;DHT22;24320;56.980;24.336;2023-03-01T05:52:50;1.90;99.90
28654;DHT22;24320;56.980;24.336;2023-03-01T05:55:19;1.90;99.90
28654;DHT22;24320;56.980;24.336;2023-03-01T05:57:47;1.90;99.90
28654;DHT22;24320;56.980;24.336;2023-03-01T06:00:16;2.00;99.90
28654;DHT22;24320;56.980;24.336;2023-03-01T06:02:43;2.00;99.90
28654;DHT22;24320;56.980;24.336;2023-03-01T06:05:12;2.00;99.90
28654;DHT22;24320;56.980;24.336;2023-03-01T06:07:40;2.00;99.90
28654;DHT22;24320;56.980;24.336;2023-03-01T06:10:08;2.00;99.90
28654;DHT22;24320;56.980;24.336;2023-03-01T06:12:37;2.10;99.90
28654;DHT22;24320;56.980;24.336;2023-03-01T06:17:42;2.10;99.90
28654;DHT22;24320;56.980;24.336;2023-03-01T06:20:13;2.10;99.90
28654;DHT22;24320;56.980;24.336;2023-03-01T06:22:41;2.10;99.90
28654;DHT22;24320;56.980;24.336;2023-03-01T06:25:10;2.20;99.90
28654;DHT22;24320;56.980;24.336;2023-03-01T06:27:37;2.20;99.90
28654;DHT22;24320;56.980;24.336;2023-03-01T06:30:05;2.20;99.90
28654;DHT22;24320;56.980;24.336;2023-03-01T06:32:32;2.20;99.90
28654;DHT22;24320;56.980;24.336;2023-03-01T06:35:00;2.30;99.90
28654;DHT22;24320;56.980;24.336;2023-03-01T06:37:26;2.40;99.90
28654;DHT22;24320;56.980;24.336;2023-03-01T06:39:53;2.50;99.90
28654;DHT22;24320;56.980;24.336;2023-03-01T06:42:20;3.00;99.90
28654;DHT22;24320;56.980;24.336;2023-03-01T06:44:47;3.60;99.90
28654;DHT22;24320;56.980;24.336;2023-03-01T06:47:14;4.20;99.90
28654;DHT22;24320;56.980;24.336;2023-03-01T06:49:41;4.40;99.90
28654;DHT22;24320;56.980;24.336;2023-03-01T06:52:08;4.70;99.90
28654;DHT22;24320;56.980;24.336;2023-03-01T06:54:35;4.80;99.90
28654;DHT22;24320;56.980;24.336;2023-03-01T06:57:02;5.00;99.90
28654;DHT22;24320;56.980;24.336;2023-03-01T06:59:29;5.00;99.90
28654;DHT22;24320;56.980;24.336;2023-03-01T07:01:56;5.00;99.90
28654;DHT22;24320;56.980;24.336;2023-03-01T07:04:23;4.90;99.90
28654;DHT22;24320;56.980;24.336;2023-03-01T07:06:51;4.80;99.90
28654;DHT22;24320;56.980;24.336;2023-03-01T07:09:22;4.60;99.90
28654;DHT22;24320;56.980;24.336;2023-03-01T07:11:50;4.40;99.90
28654;DHT22;24320;56.980;24.336;2023-03-01T07:14:17;4.50;99.90
28654;DHT22;24320;56.980;24.336;2023-03-01T07:16:44;4.60;99.90
28654;DHT22;24320;56.980;24.336;2023-03-01T07:19:11;4.60;99.90
28654;DHT22;24320;56.980;24.336;2023-03-01T07:21:38;4.70;99.90
28654;DHT22;24320;56.980;24.336;2023-03-01T07:24:10;4.90;99.90
28654;DHT22;24320;56.980;24.336;2023-03-01T07:26:37;5.00;99.90
28654;DHT22;24320;56.980;24.336;2023-03-01T07:29:06;5.10;99.90
28654;DHT22;24320;56.980;24.336;2023-03-01T07:31:33;5.10;99.90
28654;DHT22;24320;56.980;24.336;2023-03-01T07:34:01;5.30;99.90
28654;DHT22;24320;56.980;24.336;2023-03-01T07:36:27;5.60;99.90
28654;DHT22;24320;56.980;24.336;2023-03-01T07:38:55;5.70;99.90
28654;DHT22;24320;56.980;24.336;2023-03-01T07:41:22;5.90;99.90
28654;DHT22;24320;56.980;24.336;2023-03-01T07:43:49;6.10;99.90
28654;DHT22;24320;56.980;24.336;2023-03-01T07:46:16;5.90;99.90
28654;DHT22;24320;56.980;24.336;2023-03-01T07:48:44;5.60;99.90
28654;DHT22;24320;56.980;24.336;2023-03-01T07:51:11;5.50;99.90
28654;DHT22;24320;56.980;24.336;2023-03-01T07:53:38;5.50;99.90
28654;DHT22;24320;56.980;24.336;2023-03-01T07:56:08;5.80;99.90
28654;DHT22;24320;56.980;24.336;2023-03-01T07:58:37;6.10;99.90
28654;DHT22;24320;56.980;24.336;2023-03-01T08:01:09;6.20;99.90
28654;DHT22;24320;56.980;24.336;2023-03-01T08:03:39;6.30;99.90
28654;DHT22;24320;56.980;24.336;2023-03-01T08:06:08;6.40;99.90
28654;DHT22;24320;56.980;24.336;2023-03-01T08:08:35;6.30;99.90
28654;DHT22;24320;56.980;24.336;2023-03-01T08:11:04;6.20;99.90
28654;DHT22;24320;56.980;24.336;2023-03-01T08:13:32;5.70;99.90
28654;DHT22;24320;56.980;24.336;2023-03-01T08:16:13;5.40;99.90
28654;DHT22;24320;56.980;24.336;2023-03-01T08:18:42;5.10;99.90
28654;DHT22;24320;56.980;24.336;2023-03-01T08:21:12;4.90;99.90
28654;DHT22;24320;56.980;24.336;2023-03-01T08:23:40;4.80;99.90
28654;DHT22;24320;56.980;24.336;2023-03-01T08:26:13;4.80;99.90
28654;DHT22;24320;56.980;24.336;2023-03-01T08:28:41;4.80;99.90
28654;DHT22;24320;56.980;24.336;2023-03-01T08:31:28;4.90;99.90
28654;DHT22;24320;56.980;24.336;2023-03-01T08:33:59;5.00;99.90
28654;DHT22;24320;56.980;24.336;2023-03-01T08:36:31;5.20;99.90
28654;DHT22;24320;56.980;24.336;2023-03-01T08:38:59;5.40;99.90
28654;DHT22;24320;56.980;24.336;2023-03-01T08:41:28;5.40;99.90
28654;DHT22;24320;56.980;24.336;2023-03-01T08:43:58;5.40;99.90
28654;DHT22;24320;56.980;24.336;2023-03-01T08:46:46;5.30;99.90
28654;DHT22;24320;56.980;24.336;2023-03-01T08:49:16;5.20;99.90
28654;DHT22;24320;56.980;24.336;2023-03-01T08:51:45;5.20;99.90
28654;DHT22;24320;56.980;24.336;2023-03-01T08:54:14;5.10;99.90
28654;DHT22;24320;56.980;24.336;2023-03-01T08:56:42;5.00;99.90
28654;DHT22;24320;56.980;24.336;2023-03-01T08:59:10;5.00;99.90
28654;DHT22;24320;56.980;24.336;2023-03-01T09:01:37;5.00;99.90
28654;DHT22;24320;56.980;24.336;2023-03-01T09:04:04;5.10;99.90
28654;DHT22;24320;56.980;24.336;2023-03-01T09:06:33;5.10;99.90
28654;DHT22;24320;56.980;24.336;2023-03-01T09:09:00;5.10;99.90
28654;DHT22;24320;56.980;24.336;2023-03-01T09:11:28;5.10;99.90
28654;DHT22;24320;56.980;24.336;2023-03-01T09:13:55;5.20;99.90
28654;DHT22;24320;56.980;24.336;2023-03-01T09:16:23;5.30;99.90
28654;DHT22;24320;56.980;24.336;2023-03-01T09:18:52;5.30;99.90
28654;DHT22;24320;56.980;24.336;2023-03-01T09:21:21;5.30;99.90
28654;DHT22;24320;56.980;24.336;2023-03-01T09:24:04;5.30;99.90
28654;DHT22;24320;56.980;24.336;2023-03-01T09:26:31;5.30;99.90
28654;DHT22;24320;56.980;24.336;2023-03-01T09:28:59;5.20;99.90
28654;DHT22;24320;56.980;24.336;2023-03-01T09:31:26;5.30;99.90
28654;DHT22;24320;56.980;24.336;2023-03-01T09:33:53;5.40;99.90
28654;DHT22;24320;56.980;24.336;2023-03-01T09:36:23;5.50;99.90
28654;DHT22;24320;56.980;24.336;2023-03-01T09:38:51;5.60;99.90
28654;DHT22;24320;56.980;24.336;2023-03-01T09:47:27;5.50;99.90
28654;DHT22;24320;56.980;24.336;2023-03-01T09:50:11;5.60;99.90
28654;DHT22;24320;56.980;24.336;2023-03-01T10:01:29;5.60;99.90
28654;DHT22;24320;56.980;24.336;2023-03-01T10:04:23;5.40;99.90
28654;DHT22;24320;56.980;24.336;2023-03-01T10:07:21;5.30;99.90
28654;DHT22;24320;56.980;24.336;2023-03-01T10:09:52;5.40;99.90
28654;DHT22;24320;56.980;24.336;2023-03-01T10:12:34;5.60;99.90
28654;DHT22;24320;56.980;24.336;2023-03-01T10:15:22;5.70;99.90
28654;DHT22;24320;56.980;24.336;2023-03-01T10:17:56;5.90;99.90
28654;DHT22;24320;56.980;24.336;2023-03-01T10:20:52;5.90;99.90
28654;DHT22;24320;56.980;24.336;2023-03-01T10:23:20;5.80;99.90
28654;DHT22;24320;56.980;24.336;2023-03-01T10:26:02;5.50;99.90
28654;DHT22;24320;56.980;24.336;2023-03-01T10:28:50;5.40;99.90
28654;DHT22;24320;56.980;24.336;2023-03-01T10:31:22;5.20;99.90
28654;DHT22;24320;56.980;24.336;2023-03-01T10:33:55;5.10;99.90
28654;DHT22;24320;56.980;24.336;2023-03-01T10:36:24;5.30;99.90
28654;DHT22;24320;56.980;24.336;2023-03-01T10:38:55;5.40;99.90
28654;DHT22;24320;56.980;24.336;2023-03-01T10:41:27;5.50;99.90
28654;DHT22;24320;56.980;24.336;2023-03-01T10:43:56;5.60;99.90
28654;DHT22;24320;56.980;24.336;2023-03-01T10:46:35;5.70;99.90
28654;DHT22;24320;56.980;24.336;2023-03-01T10:49:16;5.80;99.90
28654;DHT22;24320;56.980;24.336;2023-03-01T10:51:47;5.70;99.90
28654;DHT22;24320;56.980;24.336;2023-03-01T10:54:49;5.60;99.90
28654;DHT22;24320;56.980;24.336;2023-03-01T10:57:33;5.60;99.90
28654;DHT22;24320;56.980;24.336;2023-03-01T11:05:26;5.80;99.90
28654;DHT22;24320;56.980;24.336;2023-03-01T11:07:58;5.70;99.90
28654;DHT22;24320;56.980;24.336;2023-03-01T11:13:05;5.70;99.90
28654;DHT22;24320;56.980;24.336;2023-03-01T11:15:32;5.90;99.90
28654;DHT22;24320;56.980;24.336;2023-03-01T11:17:59;5.90;99.90
28654;DHT22;24320;56.980;24.336;2023-03-01T11:20:39;5.80;99.90
28654;DHT22;24320;56.980;24.336;2023-03-01T11:23:12;5.80;99.90
28654;DHT22;24320;56.980;24.336;2023-03-01T11:25:47;5.80;99.90
28654;DHT22;24320;56.980;24.336;2023-03-01T11:28:17;5.80;99.90
28654;DHT22;24320;56.980;24.336;2023-03-01T11:31:01;5.80;99.90
28654;DHT22;24320;56.980;24.336;2023-03-01T11:33:55;5.90;99.90
28654;DHT22;24320;56.980;24.336;2023-03-01T11:39:34;6.10;99.90
28654;DHT22;24320;56.980;24.336;2023-03-01T11:42:40;6.00;99.90
28654;DHT22;24320;56.980;24.336;2023-03-01T11:45:06;6.00;99.90
28654;DHT22;24320;56.980;24.336;2023-03-01T11:50:26;5.90;99.90
28654;DHT22;24320;56.980;24.336;2023-03-01T12:01:36;5.70;99.90
28654;DHT22;24320;56.980;24.336;2023-03-01T12:06:56;5.70;99.90
28654;DHT22;24320;56.980;24.336;2023-03-01T12:09:38;5.80;99.90
28654;DHT22;24320;56.980;24.336;2023-03-01T12:43:23;5.20;99.90
28654;DHT22;24320;56.980;24.336;2023-03-01T12:46:04;5.30;99.90
28654;DHT22;24320;56.980;24.336;2023-03-01T12:48:47;5.30;99.90
28654;DHT22;24320;56.980;24.336;2023-03-01T12:51:19;5.30;99.90
28654;DHT22;24320;56.980;24.336;2023-03-01T12:53:49;5.30;99.90
28654;DHT22;24320;56.980;24.336;2023-03-01T12:56:25;5.40;99.90
28654;DHT22;24320;56.980;24.336;2023-03-01T13:12:51;5.50;99.90
28654;DHT22;24320;56.980;24.336;2023-03-01T13:15:33;5.50;99.90
28654;DHT22;24320;56.980;24.336;2023-03-01T13:26:03;5.30;99.90
28654;DHT22;24320;56.980;24.336;2023-03-01T13:33:52;5.40;99.90
28654;DHT22;24320;56.980;24.336;2023-03-01T13:38:59;5.40;99.90
28654;DHT22;24320;56.980;24.336;2023-03-01T13:46:45;5.40;99.90
28654;DHT22;24320;56.980;24.336;2023-03-01T13:49:19;5.40;99.90
28654;DHT22;24320;56.980;24.336;2023-03-01T13:51:50;5.40;99.90
28654;DHT22;24320;56.980;24.336;2023-03-01T13:54:27;5.40;99.90
28654;DHT22;24320;56.980;24.336;2023-03-01T13:56:57;5.50;99.90
28654;DHT22;24320;56.980;24.336;2023-03-01T13:59:25;5.60;99.90
28654;DHT22;24320;56.980;24.336;2023-03-01T14:01:55;5.60;99.90
28654;DHT22;24320;56.980;24.336;2023-03-01T14:04:30;5.60;99.90
28654;DHT22;24320;56.980;24.336;2023-03-01T14:07:21;5.50;99.90
28654;DHT22;24320;56.980;24.336;2023-03-01T14:10:04;5.50;99.90
28654;DHT22;24320;56.980;24.336;2023-03-01T14:12:59;5.60;99.70
28654;DHT22;24320;56.980;24.336;2023-03-01T14:15:59;5.60;99.70
28654;DHT22;24320;56.980;24.336;2023-03-01T14:19:04;5.70;99.90
28654;DHT22;24320;56.980;24.336;2023-03-01T14:22:06;5.70;99.90
28654;DHT22;24320;56.980;24.336;2023-03-01T14:24:44;5.70;99.80
28654;DHT22;24320;56.980;24.336;2023-03-01T14:27:13;5.80;99.60
28654;DHT22;24320;56.980;24.336;2023-03-01T14:29:41;5.90;99.90
28654;DHT22;24320;56.980;24.336;2023-03-01T14:32:21;5.90;98.90
28654;DHT22;24320;56.980;24.336;2023-03-01T14:34:49;5.80;99.90
28654;DHT22;24320;56.980;24.336;2023-03-01T14:37:33;5.70;99.50
28654;DHT22;24320;56.980;24.336;2023-03-01T14:40:02;5.60;99.90
28654;DHT22;24320;56.980;24.336;2023-03-01T14:42:34;5.40;99.90
28654;DHT22;24320;56.980;24.336;2023-03-01T14:45:02;5.10;99.90
28654;DHT22;24320;56.980;24.336;2023-03-01T14:47:35;4.90;99.90
28654;DHT22;24320;56.980;24.336;2023-03-01T14:52:42;4.40;99.90
28654;DHT22;24320;56.980;24.336;2023-03-01T14:55:18;4.30;99.90
28654;DHT22;24320;56.980;24.336;2023-03-01T14:57:50;4.10;99.90
28654;DHT22;24320;56.980;24.336;2023-03-01T15:00:23;4.00;99.90
28654;DHT22;24320;56.980;24.336;2023-03-01T15:02:52;3.90;99.90
28654;DHT22;24320;56.980;24.336;2023-03-01T15:05:27;3.80;99.90
28654;DHT22;24320;56.980;24.336;2023-03-01T15:07:57;3.80;99.90
28654;DHT22;24320;56.980;24.336;2023-03-01T15:10:30;3.70;99.90
28654;DHT22;24320;56.980;24.336;2023-03-01T15:13:22;3.70;99.90
28654;DHT22;24320;56.980;24.336;2023-03-01T15:15:49;3.60;99.90
28654;DHT22;24320;56.980;24.336;2023-03-01T15:18:22;3.50;99.90
28654;DHT22;24320;56.980;24.336;2023-03-01T15:20:53;3.50;99.90
28654;DHT22;24320;56.980;24.336;2023-03-01T15:23:29;3.50;99.90
28654;DHT22;24320;56.980;24.336;2023-03-01T15:25:57;3.40;99.90
28654;DHT22;24320;56.980;24.336;2023-03-01T15:28:28;3.40;99.90
28654;DHT22;24320;56.980;24.336;2023-03-01T15:33:35;3.40;99.90
28654;DHT22;24320;56.980;24.336;2023-03-01T15:39:02;3.30;99.90
28654;DHT22;24320;56.980;24.336;2023-03-01T15:41:32;3.30;99.90
28654;DHT22;24320;56.980;24.336;2023-03-01T15:44:01;3.30;99.90
28654;DHT22;24320;56.980;24.336;2023-03-01T15:46:46;3.30;99.90
28654;DHT22;24320;56.980;24.336;2023-03-01T15:52:38;3.20;99.90
28654;DHT22;24320;56.980;24.336;2023-03-01T15:57:42;3.20;99.90
28654;DHT22;24320;56.980;24.336;2023-03-01T16:00:10;3.20;99.90
28654;DHT22;24320;56.980;24.336;2023-03-01T16:02:41;3.10;99.90
28654;DHT22;24320;56.980;24.336;2023-03-01T16:07:48;3.10;99.90
28654;DHT22;24320;56.980;24.336;2023-03-01T16:10:15;3.10;99.90
28654;DHT22;24320;56.980;24.336;2023-03-01T16:12:42;3.10;99.90
28654;DHT22;24320;56.980;24.336;2023-03-01T16:15:23;3.00;99.90
28654;DHT22;24320;56.980;24.336;2023-03-01T16:17:50;3.00;99.90
28654;DHT22;24320;56.980;24.336;2023-03-01T16:20:19;3.00;99.90
28654;DHT22;24320;56.980;24.336;2023-03-01T16:22:57;3.00;99.90
28654;DHT22;24320;56.980;24.336;2023-03-01T16:25:24;3.00;99.90
28654;DHT22;24320;56.980;24.336;2023-03-01T16:27:51;2.90;99.90
28654;DHT22;24320;56.980;24.336;2023-03-01T16:30:21;2.80;99.90
28654;DHT22;24320;56.980;24.336;2023-03-01T16:32:49;2.80;99.90
28654;DHT22;24320;56.980;24.336;2023-03-01T16:35:19;2.70;99.90
28654;DHT22;24320;56.980;24.336;2023-03-01T16:37:47;2.70;99.90
28654;DHT22;24320;56.980;24.336;2023-03-01T16:42:44;2.40;99.90
28654;DHT22;24320;56.980;24.336;2023-03-01T16:45:11;2.30;99.90
28654;DHT22;24320;56.980;24.336;2023-03-01T16:47:50;2.10;99.90
28654;DHT22;24320;56.980;24.336;2023-03-01T16:50:21;1.90;99.90
28654;DHT22;24320;56.980;24.336;2023-03-01T16:52:48;1.80;99.90
28654;DHT22;24320;56.980;24.336;2023-03-01T16:55:15;1.60;99.90
28654;DHT22;24320;56.980;24.336;2023-03-01T16:57:42;1.50;99.90
28654;DHT22;24320;56.980;24.336;2023-03-01T17:00:11;1.40;99.90
28654;DHT22;24320;56.980;24.336;2023-03-01T17:02:40;1.20;99.90
28654;DHT22;24320;56.980;24.336;2023-03-01T17:05:09;1.10;99.90
28654;DHT22;24320;56.980;24.336;2023-03-01T17:07:37;1.00;99.90
28654;DHT22;24320;56.980;24.336;2023-03-01T17:10:07;0.90;99.90
28654;DHT22;24320;56.980;24.336;2023-03-01T17:12:35;0.80;99.90
28654;DHT22;24320;56.980;24.336;2023-03-01T17:15:04;0.70;99.90
28654;DHT22;24320;56.980;24.336;2023-03-01T17:17:31;0.70;99.90
28654;DHT22;24320;56.980;24.336;2023-03-01T17:19:58;0.60;99.90
28654;DHT22;24320;56.980;24.336;2023-03-01T17:22:27;0.60;99.90
28654;DHT22;24320;56.980;24.336;2023-03-01T17:24:54;0.60;99.90
28654;DHT22;24320;56.980;24.336;2023-03-01T17:27:21;0.60;99.90
28654;DHT22;24320;56.980;24.336;2023-03-01T17:29:50;0.60;99.90
28654;DHT22;24320;56.980;24.336;2023-03-01T17:32:18;0.50;99.90
28654;DHT22;24320;56.980;24.336;2023-03-01T17:34:45;0.60;99.90
28654;DHT22;24320;56.980;24.336;2023-03-01T17:37:12;0.60;99.90
28654;DHT22;24320;56.980;24.336;2023-03-01T17:42:18;0.50;99.90
28654;DHT22;24320;56.980;24.336;2023-03-01T17:44:50;0.50;99.90
28654;DHT22;24320;56.980;24.336;2023-03-01T17:47:17;0.40;99.90
28654;DHT22;24320;56.980;24.336;2023-03-01T17:49:44;0.30;99.90
28654;DHT22;24320;56.980;24.336;2023-03-01T17:52:11;0.20;99.90
28654;DHT22;24320;56.980;24.336;2023-03-01T17:54:38;0.10;99.90
28654;DHT22;24320;56.980;24.336;2023-03-01T17:57:06;0.00;99.90
28654;DHT22;24320;56.980;24.336;2023-03-01T17:59:35;0.00;99.90
28654;DHT22;24320;56.980;24.336;2023-03-01T18:02:03;-0.10;99.90
28654;DHT22;24320;56.980;24.336;2023-03-01T18:04:30;-0.20;99.90
28654;DHT22;24320;56.980;24.336;2023-03-01T18:06:58;-0.20;99.90
28654;DHT22;24320;56.980;24.336;2023-03-01T18:09:28;-0.20;99.90
28654;DHT22;24320;56.980;24.336;2023-03-01T18:11:56;-0.20;99.90
28654;DHT22;24320;56.980;24.336;2023-03-01T18:14:23;-0.20;99.90
28654;DHT22;24320;56.980;24.336;2023-03-01T18:16:51;-0.20;99.90
28654;DHT22;24320;56.980;24.336;2023-03-01T18:19:18;-0.10;99.90